sensor_id;sensor_type;location;lat;lon;timestamp;pressure;altitude;pressure_sealevel;temperature;humidity
11525;BME280;5819;49.648;8.330;2023-11-21T00:00:59;99746.88;;;9.37;100.00
11525;BME280;5819;49.648;8.330;2023-11-21T00:03:30;99753.75;;;9.20;100.00
11525;BME280;5819;49.648;8.330;2023-11-21T00:05:58;99758.31;;;9.15;100.00
11525;BME280;5819;49.648;8.330;2023-11-21T00:08:27;99749.13;;;9.08;100.00
11525;BME280;5819;49.648;8.330;2023-11-21T00:10:56;99761.69;;;9.17;100.00
11525;BME280;5819;49.648;8.330;2023-11-21T00:13:28;99747.13;;;9.14;100.00
11525;BME280;5819;49.648;8.330;2023-11-21T00:15:56;99751.25;;;9.18;100.00
11525;BME280;5819;49.648;8.330;2023-11-21T00:18:24;99746.75;;;9.22;100.00
11525;BME280;5819;49.648;8.330;2023-11-21T00:20:51;99750.25;;;9.21;100.00
11525;BME280;5819;49.648;8.330;2023-11-21T00:23:19;99748.03;;;9.13;100.00
11525;BME280;5819;49.648;8.330;2023-11-21T00:25:47;99746.06;;;9.18;100.00
11525;BME280;5819;49.648;8.330;2023-11-21T00:28:15;99733.78;;;9.22;100.00
11525;BME280;5819;49.648;8.330;2023-11-21T00:30:45;99741.16;;;9.12;100.00
11525;BME280;5819;49.648;8.330;2023-11-21T00:33:13;99742.00;;;9.13;100.00
11525;BME280;5819;49.648;8.330;2023-11-21T00:35:41;99742.19;;;9.08;100.00
11525;BME280;5819;49.648;8.330;2023-11-21T00:38:09;99745.69;;;9.07;100.00
11525;BME280;5819;49.648;8.330;2023-11-21T00:40:38;99744.75;;;9.10;100.00
11525;BME280;5819;49.648;8.330;2023-11-21T00:43:06;99739.47;;;9.11;100.00
11525;BME280;5819;49.648;8.330;2023-11-21T00:45:33;99738.81;;;9.25;100.00
11525;BME280;5819;49.648;8.330;2023-11-21T00:48:05;99738.97;;;9.22;100.00
11525;BME280;5819;49.648;8.330;2023-11-21T00:50:33;99739.03;;;9.20;100.00
11525;BME280;5819;49.648;8.330;2023-11-21T00:53:00;99739.25;;;9.16;100.00
11525;BME280;5819;49.648;8.330;2023-11-21T00:55:29;99738.69;;;9.09;100.00
11525;BME280;5819;49.648;8.330;2023-11-21T00:57:58;99744.28;;;9.19;100.00
11525;BME280;5819;49.648;8.330;2023-11-21T01:00:26;99739.41;;;9.13;100.00
11525;BME280;5819;49.648;8.330;2023-11-21T01:02:54;99737.56;;;9.15;100.00
11525;BME280;5819;49.648;8.330;2023-11-21T01:05:23;99734.16;;;9.14;100.00
11525;BME280;5819;49.648;8.330;2023-11-21T01:07:51;99746.28;;;9.14;100.00
11525;BME280;5819;49.648;8.330;2023-11-21T01:10:19;99749.00;;;9.11;100.00
11525;BME280;5819;49.648;8.330;2023-11-21T01:12:47;99754.41;;;9.06;100.00
11525;BME280;5819;49.648;8.330;2023-11-21T01:15:15;99753.41;;;9.09;100.00
11525;BME280;5819;49.648;8.330;2023-11-21T01:17:43;99756.91;;;9.08;100.00
11525;BME280;5819;49.648;8.330;2023-11-21T01:20:11;99756.72;;;9.12;100.00
11525;BME280;5819;49.648;8.330;2023-11-21T01:22:42;99762.97;;;9.08;100.00
11525;BME280;5819;49.648;8.330;2023-11-21T01:25:10;99762.09;;;9.08;100.00
11525;BME280;5819;49.648;8.330;2023-11-21T01:27:38;99761.25;;;9.07;100.00
11525;BME280;5819;49.648;8.330;2023-11-21T01:30:06;99760.56;;;9.04;100.00
11525;BME280;5819;49.648;8.330;2023-11-21T01:32:37;99762.09;;;9.08;100.00
11525;BME280;5819;49.648;8.330;2023-11-21T01:35:07;99766.44;;;9.07;100.00
11525;BME280;5819;49.648;8.330;2023-11-21T01:37:36;99767.25;;;9.09;100.00
11525;BME280;5819;49.648;8.330;2023-11-21T01:40:07;99770.78;;;9.07;100.00
11525;BME280;5819;49.648;8.330;2023-11-21T01:42:40;99771.63;;;9.07;100.00
11525;BME280;5819;49.648;8.330;2023-11-21T01:45:10;99775.66;;;9.14;100.00
11525;BME280;5819;49.648;8.330;2023-11-21T01:47:41;99767.94;;;9.13;100.00
11525;BME280;5819;49.648;8.330;2023-11-21T01:50:13;99766.19;;;9.13;100.00
11525;BME280;5819;49.648;8.330;2023-11-21T01:52:44;99769.00;;;9.09;100.00
11525;BME280;5819;49.648;8.330;2023-11-21T01:55:16;99761.84;;;9.14;100.00
11525;BME280;5819;49.648;8.330;2023-11-21T01:57:54;99763.50;;;9.15;100.00
11525;BME280;5819;49.648;8.330;2023-11-21T02:00:23;99761.53;;;9.20;100.00
11525;BME280;5819;49.648;8.330;2023-11-21T02:02:53;99764.28;;;9.17;100.00
11525;BME280;5819;49.648;8.330;2023-11-21T02:05:21;99766.69;;;9.21;100.00
11525;BME280;5819;49.648;8.330;2023-11-21T02:07:49;99767.03;;;9.14;100.00
11525;BME280;5819;49.648;8.330;2023-11-21T02:10:20;99775.88;;;9.10;100.00
11525;BME280;5819;49.648;8.330;2023-11-21T02:12:51;99771.38;;;9.13;100.00
11525;BME280;5819;49.648;8.330;2023-11-21T02:15:20;99766.88;;;9.17;100.00
11525;BME280;5819;49.648;8.330;2023-11-21T02:17:49;99769.84;;;9.09;100.00
11525;BME280;5819;49.648;8.330;2023-11-21T02:20:20;99771.59;;;9.09;100.00
11525;BME280;5819;49.648;8.330;2023-11-21T02:22:51;99782.00;;;9.07;100.00
11525;BME280;5819;49.648;8.330;2023-11-21T02:25:22;99774.13;;;9.10;100.00
11525;BME280;5819;49.648;8.330;2023-11-21T02:27:50;99776.72;;;9.10;100.00
11525;BME280;5819;49.648;8.330;2023-11-21T02:30:18;99774.13;;;9.10;100.00
11525;BME280;5819;49.648;8.330;2023-11-21T02:32:47;99769.88;;;9.08;100.00
11525;BME280;5819;49.648;8.330;2023-11-21T02:35:15;99781.06;;;9.10;100.00
11525;BME280;5819;49.648;8.330;2023-11-21T02:37:43;99779.50;;;9.06;100.00
11525;BME280;5819;49.648;8.330;2023-11-21T02:40:14;99783.91;;;9.04;100.00
11525;BME280;5819;49.648;8.330;2023-11-21T02:42:44;99781.41;;;9.02;100.00
11525;BME280;5819;49.648;8.330;2023-11-21T02:45:14;99779.72;;;9.01;100.00
11525;BME280;5819;49.648;8.330;2023-11-21T02:47:44;99772.00;;;9.00;100.00
11525;BME280;5819;49.648;8.330;2023-11-21T02:50:12;99787.75;;;8.95;100.00
11525;BME280;5819;49.648;8.330;2023-11-21T02:52:40;99784.56;;;8.90;100.00
11525;BME280;5819;49.648;8.330;2023-11-21T02:55:09;99783.06;;;8.84;100.00
11525;BME280;5819;49.648;8.330;2023-11-21T02:57:38;99787.53;;;8.81;100.00
11525;BME280;5819;49.648;8.330;2023-11-21T03:00:07;99790.34;;;8.76;100.00
11525;BME280;5819;49.648;8.330;2023-11-21T03:02:37;99789.06;;;8.66;100.00
11525;BME280;5819;49.648;8.330;2023-11-21T03:05:07;99785.53;;;8.67;100.00
11525;BME280;5819;49.648;8.330;2023-11-21T03:07:36;99785.63;;;8.66;100.00
11525;BME280;5819;49.648;8.330;2023-11-21T03:10:05;99783.94;;;8.65;100.00
11525;BME280;5819;49.648;8.330;2023-11-21T03:12:35;99776.81;;;8.70;100.00
11525;BME280;5819;49.648;8.330;2023-11-21T03:15:06;99787.19;;;8.70;100.00
11525;BME280;5819;49.648;8.330;2023-11-21T03:17:35;99788.13;;;8.67;100.00
11525;BME280;5819;49.648;8.330;2023-11-21T03:20:04;99788.72;;;8.74;100.00
11525;BME280;5819;49.648;8.330;2023-11-21T03:22:32;99787.78;;;8.75;100.00
11525;BME280;5819;49.648;8.330;2023-11-21T03:25:00;99795.66;;;8.73;100.00
11525;BME280;5819;49.648;8.330;2023-11-21T03:27:29;99797.41;;;8.73;100.00
11525;BME280;5819;49.648;8.330;2023-11-21T03:29:57;99801.03;;;8.69;100.00
11525;BME280;5819;49.648;8.330;2023-11-21T03:32:26;99804.69;;;8.65;100.00
11525;BME280;5819;49.648;8.330;2023-11-21T03:34:55;99802.28;;;8.60;100.00
11525;BME280;5819;49.648;8.330;2023-11-21T03:37:25;99804.16;;;8.57;100.00
11525;BME280;5819;49.648;8.330;2023-11-21T03:39:55;99811.88;;;8.58;100.00
11525;BME280;5819;49.648;8.330;2023-11-21T03:42:24;99811.88;;;8.58;100.00
11525;BME280;5819;49.648;8.330;2023-11-21T03:44:53;99821.28;;;8.61;100.00
11525;BME280;5819;49.648;8.330;2023-11-21T03:47:21;99816.59;;;8.69;100.00
11525;BME280;5819;49.648;8.330;2023-11-21T03:49:51;99819.13;;;8.70;100.00
11525;BME280;5819;49.648;8.330;2023-11-21T03:52:19;99822.63;;;8.69;100.00
11525;BME280;5819;49.648;8.330;2023-11-21T03:54:47;99823.53;;;8.68;100.00
11525;BME280;5819;49.648;8.330;2023-11-21T03:57:14;99829.50;;;8.70;100.00
11525;BME280;5819;49.648;8.330;2023-11-21T03:59:43;99832.88;;;8.72;100.00
11525;BME280;5819;49.648;8.330;2023-11-21T04:02:11;99826.69;;;8.75;100.00
11525;BME280;5819;49.648;8.330;2023-11-21T04:04:39;99824.94;;;8.75;100.00
11525;BME280;5819;49.648;8.330;2023-11-21T04:07:08;99834.41;;;8.76;100.00
11525;BME280;5819;49.648;8.330;2023-11-21T04:09:37;99824.03;;;8.76;100.00
11525;BME280;5819;49.648;8.330;2023-11-21T04:12:05;99832.66;;;8.77;100.00
11525;BME280;5819;49.648;8.330;2023-11-21T04:14:33;99841.22;;;8.79;100.00
11525;BME280;5819;49.648;8.330;2023-11-21T04:17:01;99838.75;;;8.76;100.00
11525;BME280;5819;49.648;8.330;2023-11-21T04:19:30;99837.00;;;8.76;100.00
11525;BME280;5819;49.648;8.330;2023-11-21T04:21:58;99843.00;;;8.78;100.00
11525;BME280;5819;49.648;8.330;2023-11-21T04:24:27;99846.63;;;8.74;100.00
11525;BME280;5819;49.648;8.330;2023-11-21T04:26:55;99845.63;;;8.77;100.00
11525;BME280;5819;49.648;8.330;2023-11-21T04:29:23;99848.22;;;8.77;100.00
11525;BME280;5819;49.648;8.330;2023-11-21T04:31:51;99854.19;;;8.79;100.00
11525;BME280;5819;49.648;8.330;2023-11-21T04:34:19;99862.75;;;8.81;100.00
11525;BME280;5819;49.648;8.330;2023-11-21T04:36:47;99867.03;;;8.82;100.00
11525;BME280;5819;49.648;8.330;2023-11-21T04:39:15;99865.19;;;8.84;100.00
11525;BME280;5819;49.648;8.330;2023-11-21T04:41:44;99862.69;;;8.82;100.00
11525;BME280;5819;49.648;8.330;2023-11-21T04:44:11;99875.56;;;8.84;100.00
11525;BME280;5819;49.648;8.330;2023-11-21T04:46:39;99876.47;;;8.83;100.00
11525;BME280;5819;49.648;8.330;2023-11-21T04:49:07;99893.06;;;8.79;100.00
11525;BME280;5819;49.648;8.330;2023-11-21T04:51:35;99889.72;;;8.77;100.00
11525;BME280;5819;49.648;8.330;2023-11-21T04:54:04;99897.44;;;8.78;100.00
11525;BME280;5819;49.648;8.330;2023-11-21T04:56:33;99898.34;;;8.77;100.00
11525;BME280;5819;49.648;8.330;2023-11-21T04:59:03;99898.22;;;8.80;100.00
11525;BME280;5819;49.648;8.330;2023-11-21T05:01:31;99899.25;;;8.76;100.00
11525;BME280;5819;49.648;8.330;2023-11-21T05:03:59;99905.22;;;8.78;100.00
11525;BME280;5819;49.648;8.330;2023-11-21T05:06:27;99907.72;;;8.80;100.00
11525;BME280;5819;49.648;8.330;2023-11-21T05:08:55;99914.84;;;8.75;100.00
11525;BME280;5819;49.648;8.330;2023-11-21T05:11:24;99909.88;;;8.70;100.00
11525;BME280;5819;49.648;8.330;2023-11-21T05:13:52;99907.28;;;8.70;100.00
11525;BME280;5819;49.648;8.330;2023-11-21T05:16:25;99907.28;;;8.70;100.00
11525;BME280;5819;49.648;8.330;2023-11-21T05:18:54;99917.25;;;8.59;100.00
11525;BME280;5819;49.648;8.330;2023-11-21T05:21:26;99919.72;;;8.62;100.00
11525;BME280;5819;49.648;8.330;2023-11-21T05:23:56;99917.44;;;8.55;100.00
11525;BME280;5819;49.648;8.330;2023-11-21T05:26:23;99919.97;;;8.56;100.00
11525;BME280;5819;49.648;8.330;2023-11-21T05:28:52;99933.72;;;8.58;100.00
11525;BME280;5819;49.648;8.330;2023-11-21T05:31:19;99937.22;;;8.57;100.00
11525;BME280;5819;49.648;8.330;2023-11-21T05:33:49;99945.91;;;8.56;100.00
11525;BME280;5819;49.648;8.330;2023-11-21T05:36:17;99946.78;;;8.55;100.00
11525;BME280;5819;49.648;8.330;2023-11-21T05:38:45;99946.88;;;8.54;100.00
11525;BME280;5819;49.648;8.330;2023-11-21T05:41:13;99947.06;;;8.49;100.00
11525;BME280;5819;49.648;8.330;2023-11-21T05:43:41;99945.31;;;8.50;100.00
11525;BME280;5819;49.648;8.330;2023-11-21T05:46:09;99952.16;;;8.51;100.00
11525;BME280;5819;49.648;8.330;2023-11-21T05:48:37;99957.47;;;8.48;100.00
11525;BME280;5819;49.648;8.330;2023-11-21T05:51:06;99964.34;;;8.49;100.00
11525;BME280;5819;49.648;8.330;2023-11-21T05:53:35;99971.22;;;8.50;100.00
11525;BME280;5819;49.648;8.330;2023-11-21T05:56:03;99972.06;;;8.50;100.00
11525;BME280;5819;49.648;8.330;2023-11-21T05:58:31;99972.78;;;8.54;100.00
11525;BME280;5819;49.648;8.330;2023-11-21T06:00:59;99971.88;;;8.55;100.00
11525;BME280;5819;49.648;8.330;2023-11-21T06:03:27;99967.47;;;8.57;100.00
11525;BME280;5819;49.648;8.330;2023-11-21T06:05:55;99975.97;;;8.60;100.00
11525;BME280;5819;49.648;8.330;2023-11-21T06:08:24;99975.31;;;8.55;100.00
11525;BME280;5819;49.648;8.330;2023-11-21T06:10:52;99986.47;;;8.57;100.00
11525;BME280;5819;49.648;8.330;2023-11-21T06:13:20;99989.91;;;8.58;100.00
11525;BME280;5819;49.648;8.330;2023-11-21T06:15:51;99993.41;;;8.57;100.00
11525;BME280;5819;49.648;8.330;2023-11-21T06:18:18;100004.53;;;8.59;100.00
11525;BME280;5819;49.648;8.330;2023-11-21T06:20:47;100002.78;;;8.59;100.00
11525;BME280;5819;49.648;8.330;2023-11-21T06:23:15;100000.28;;;8.58;100.00
11525;BME280;5819;49.648;8.330;2023-11-21T06:25:44;100000.03;;;8.64;100.00
11525;BME280;5819;49.648;8.330;2023-11-21T06:28:12;100001.94;;;8.59;100.00
11525;BME280;5819;49.648;8.330;2023-11-21T06:30:44;100005.06;;;8.67;100.00
11525;BME280;5819;49.648;8.330;2023-11-21T06:33:12;100005.28;;;8.62;100.00
11525;BME280;5819;49.648;8.330;2023-11-21T06:35:40;100010.53;;;8.61;100.00
11525;BME280;5819;49.648;8.330;2023-11-21T06:38:08;100014.81;;;8.62;100.00
11525;BME280;5819;49.648;8.330;2023-11-21T06:40:36;100015.66;;;8.62;100.00
11525;BME280;5819;49.648;8.330;2023-11-21T06:43:06;100018.31;;;8.61;100.00
11525;BME280;5819;49.648;8.330;2023-11-21T06:45:34;100026.84;;;8.63;100.00
11525;BME280;5819;49.648;8.330;2023-11-21T06:48:02;100026.63;;;8.69;100.00
11525;BME280;5819;49.648;8.330;2023-11-21T06:50:30;100025.81;;;8.67;100.00
11525;BME280;5819;49.648;8.330;2023-11-21T06:52:58;100036.28;;;8.65;100.00
11525;BME280;5819;49.648;8.330;2023-11-21T06:55:26;100034.44;;;8.67;100.00
11525;BME280;5819;49.648;8.330;2023-11-21T06:57:54;100038.56;;;8.73;100.00
11525;BME280;5819;49.648;8.330;2023-11-21T07:00:23;100039.72;;;8.66;100.00
11525;BME280;5819;49.648;8.330;2023-11-21T07:02:51;100045.78;;;8.65;100.00
11525;BME280;5819;49.648;8.330;2023-11-21T07:05:20;100056.94;;;8.67;100.00
11525;BME280;5819;49.648;8.330;2023-11-21T07:07:50;100061.34;;;8.65;100.00
11525;BME280;5819;49.648;8.330;2023-11-21T07:10:20;100064.72;;;8.67;100.00
11525;BME280;5819;49.648;8.330;2023-11-21T07:12:49;100068.53;;;8.80;100.00
11525;BME280;5819;49.648;8.330;2023-11-21T07:15:18;100073.25;;;8.70;100.00
11525;BME280;5819;49.648;8.330;2023-11-21T07:17:47;100072.44;;;8.68;100.00
11525;BME280;5819;49.648;8.330;2023-11-21T07:20:17;100079.03;;;8.77;100.00
11525;BME280;5819;49.648;8.330;2023-11-21T07:22:50;100081.75;;;8.74;100.00
11525;BME280;5819;49.648;8.330;2023-11-21T07:25:21;100078.19;;;8.98;100.00
11525;BME280;5819;49.648;8.330;2023-11-21T07:27:49;100085.78;;;8.81;100.00
11525;BME280;5819;49.648;8.330;2023-11-21T07:30:17;100078.84;;;8.81;100.00
11525;BME280;5819;49.648;8.330;2023-11-21T07:32:45;100087.69;;;8.76;100.00
11525;BME280;5819;49.648;8.330;2023-11-21T07:35:16;100091.72;;;8.83;100.00
11525;BME280;5819;49.648;8.330;2023-11-21T07:37:44;100098.06;;;8.76;100.00
11525;BME280;5819;49.648;8.330;2023-11-21T07:40:14;100099.63;;;8.80;100.00
11525;BME280;5819;49.648;8.330;2023-11-21T07:42:43;100102.78;;;8.88;100.00
11525;BME280;5819;49.648;8.330;2023-11-21T07:45:11;100103.66;;;8.87;100.00
11525;BME280;5819;49.648;8.330;2023-11-21T07:47:39;100103.97;;;8.79;100.00
11525;BME280;5819;49.648;8.330;2023-11-21T07:50:08;100103.13;;;8.79;100.00
11525;BME280;5819;49.648;8.330;2023-11-21T07:52:38;100104.69;;;8.83;100.00
11525;BME280;5819;49.648;8.330;2023-11-21T07:55:07;100105.63;;;8.82;100.00
11525;BME280;5819;49.648;8.330;2023-11-21T07:57:36;100111.72;;;8.81;100.00
11525;BME280;5819;49.648;8.330;2023-11-21T08:00:06;100117.75;;;8.81;100.00
11525;BME280;5819;49.648;8.330;2023-11-21T08:02:39;100119.53;;;8.79;100.00
11525;BME280;5819;49.648;8.330;2023-11-21T08:05:09;100132.41;;;8.82;100.00
11525;BME280;5819;49.648;8.330;2023-11-21T08:07:51;100132.41;;;8.82;100.00
11525;BME280;5819;49.648;8.330;2023-11-21T08:10:19;100135.78;;;8.84;100.00
11525;BME280;5819;49.648;8.330;2023-11-21T08:12:48;100133.06;;;8.87;100.00
11525;BME280;5819;49.648;8.330;2023-11-21T08:15:17;100141.75;;;8.86;100.00
11525;BME280;5819;49.648;8.330;2023-11-21T08:17:46;100145.25;;;8.85;100.00
11525;BME280;5819;49.648;8.330;2023-11-21T08:20:15;100147.72;;;8.88;100.00
11525;BME280;5819;49.648;8.330;2023-11-21T08:22:45;100143.56;;;8.84;100.00
11525;BME280;5819;49.648;8.330;2023-11-21T08:25:16;100153.88;;;8.86;100.00
11525;BME280;5819;49.648;8.330;2023-11-21T08:27:47;100152.22;;;8.83;100.00
11525;BME280;5819;49.648;8.330;2023-11-21T08:30:15;100159.25;;;8.81;100.00
11525;BME280;5819;49.648;8.330;2023-11-21T08:32:48;100160.94;;;8.82;100.00
11525;BME280;5819;49.648;8.330;2023-11-21T08:35:16;100157.50;;;8.82;100.00
11525;BME280;5819;49.648;8.330;2023-11-21T08:37:45;100162.50;;;8.86;100.00
11525;BME280;5819;49.648;8.330;2023-11-21T08:40:15;100165.91;;;8.87;100.00
11525;BME280;5819;49.648;8.330;2023-11-21T08:42:44;100168.47;;;8.88;100.00
11525;BME280;5819;49.648;8.330;2023-11-21T08:45:13;100174.38;;;8.92;100.00
11525;BME280;5819;49.648;8.330;2023-11-21T08:47:42;100171.44;;;9.01;100.00
11525;BME280;5819;49.648;8.330;2023-11-21T08:50:11;100177.66;;;8.97;100.00
11525;BME280;5819;49.648;8.330;2023-11-21T08:52:39;100177.69;;;8.96;100.00
11525;BME280;5819;49.648;8.330;2023-11-21T08:55:08;100183.59;;;8.99;100.00
11525;BME280;5819;49.648;8.330;2023-11-21T08:57:37;100186.16;;;9.01;100.00
11525;BME280;5819;49.648;8.330;2023-11-21T09:00:07;100191.22;;;9.04;100.00
11525;BME280;5819;49.648;8.330;2023-11-21T09:02:37;100200.81;;;9.02;100.00
11525;BME280;5819;49.648;8.330;2023-11-21T09:05:06;100199.09;;;9.02;100.00
11525;BME280;5819;49.648;8.330;2023-11-21T09:07:35;100206.56;;;9.10;100.00
11525;BME280;5819;49.648;8.330;2023-11-21T09:10:04;100206.38;;;9.14;100.00
11525;BME280;5819;49.648;8.330;2023-11-21T09:12:33;100205.00;;;9.06;100.00
11525;BME280;5819;49.648;8.330;2023-11-21T09:15:04;100207.72;;;9.24;100.00
11525;BME280;5819;49.648;8.330;2023-11-21T09:17:32;100213.25;;;9.15;100.00
11525;BME280;5819;49.648;8.330;2023-11-21T09:20:01;100213.31;;;9.14;100.00
11525;BME280;5819;49.648;8.330;2023-11-21T09:22:32;100214.19;;;9.14;100.00
11525;BME280;5819;49.648;8.330;2023-11-21T09:25:00;100212.41;;;9.15;100.00
11525;BME280;5819;49.648;8.330;2023-11-21T09:27:28;100215.13;;;9.12;100.00
11525;BME280;5819;49.648;8.330;2023-11-21T09:29:56;100218.56;;;9.12;100.00
11525;BME280;5819;49.648;8.330;2023-11-21T09:32:26;100224.56;;;9.14;100.00
11525;BME280;5819;49.648;8.330;2023-11-21T09:34:54;100225.28;;;9.18;100.00
11525;BME280;5819;49.648;8.330;2023-11-21T09:37:25;100224.09;;;9.26;100.00
11525;BME280;5819;49.648;8.330;2023-11-21T09:39:54;100227.63;;;9.24;100.00
11525;BME280;5819;49.648;8.330;2023-11-21T09:42:23;100225.81;;;9.26;100.00
11525;BME280;5819;49.648;8.330;2023-11-21T09:44:58;100236.84;;;9.31;100.00
11525;BME280;5819;49.648;8.330;2023-11-21T09:47:32;100238.69;;;9.29;100.00
11525;BME280;5819;49.648;8.330;2023-11-21T09:50:04;100242.16;;;9.28;100.00
11525;BME280;5819;49.648;8.330;2023-11-21T09:52:43;100235.56;;;9.43;100.00
11525;BME280;5819;49.648;8.330;2023-11-21T09:55:16;100244.91;;;9.47;100.00
11525;BME280;5819;49.648;8.330;2023-11-21T09:57:48;100243.03;;;9.28;100.00
11525;BME280;5819;49.648;8.330;2023-11-21T10:00:17;100250.09;;;9.25;100.00
11525;BME280;5819;49.648;8.330;2023-11-21T10:02:52;100250.13;;;9.23;100.00
11525;BME280;5819;49.648;8.330;2023-11-21T10:05:20;100254.84;;;9.35;100.00
11525;BME280;5819;49.648;8.330;2023-11-21T10:07:53;100262.81;;;9.31;100.00
11525;BME280;5819;49.648;8.330;2023-11-21T10:10:24;100263.59;;;9.33;100.00
11525;BME280;5819;49.648;8.330;2023-11-21T10:12:55;100259.19;;;9.35;100.00
11525;BME280;5819;49.648;8.330;2023-11-21T10:15:24;100261.69;;;9.38;100.00
11525;BME280;5819;49.648;8.330;2023-11-21T10:17:54;100264.94;;;9.65;100.00
11525;BME280;5819;49.648;8.330;2023-11-21T10:20:23;100257.63;;;9.53;100.00
11525;BME280;5819;49.648;8.330;2023-11-21T10:22:52;100260.94;;;9.56;100.00
11525;BME280;5819;49.648;8.330;2023-11-21T10:25:20;100263.81;;;9.50;100.00
11525;BME280;5819;49.648;8.330;2023-11-21T10:27:48;100271.66;;;9.49;100.00
11525;BME280;5819;49.648;8.330;2023-11-21T10:30:18;100267.25;;;9.51;100.00
11525;BME280;5819;49.648;8.330;2023-11-21T10:32:46;100264.75;;;9.48;100.00
11525;BME280;5819;49.648;8.330;2023-11-21T10:35:16;100268.91;;;9.52;100.00
11525;BME280;5819;49.648;8.330;2023-11-21T10:37:44;100266.88;;;9.60;100.00
11525;BME280;5819;49.648;8.330;2023-11-21T10:40:12;100262.56;;;9.80;100.00
11525;BME280;5819;49.648;8.330;2023-11-21T10:42:40;100256.63;;;9.99;100.00
11525;BME280;5819;49.648;8.330;2023-11-21T10:45:09;100262.34;;;9.86;100.00
11525;BME280;5819;49.648;8.330;2023-11-21T10:47:40;100258.56;;;9.94;100.00
11525;BME280;5819;49.648;8.330;2023-11-21T10:50:09;100253.41;;;9.92;100.00
11525;BME280;5819;49.648;8.330;2023-11-21T10:52:40;100259.00;;;10.03;100.00
11525;BME280;5819;49.648;8.330;2023-11-21T10:55:16;100257.88;;;10.10;100.00
11525;BME280;5819;49.648;8.330;2023-11-21T10:57:48;100258.59;;;10.14;100.00
11525;BME280;5819;49.648;8.330;2023-11-21T11:00:17;100253.34;;;10.15;100.00
11525;BME280;5819;49.648;8.330;2023-11-21T11:02:49;100254.97;;;10.18;100.00
11525;BME280;5819;49.648;8.330;2023-11-21T11:05:19;100249.06;;;10.35;100.00
11525;BME280;5819;49.648;8.330;2023-11-21T11:07:51;100240.66;;;10.48;100.00
11525;BME280;5819;49.648;8.330;2023-11-21T11:10:21;100235.75;;;10.61;100.00
11525;BME280;5819;49.648;8.330;2023-11-21T11:12:49;100232.16;;;10.63;100.00
11525;BME280;5819;49.648;8.330;2023-11-21T11:15:19;100235.44;;;10.48;100.00
11525;BME280;5819;49.648;8.330;2023-11-21T11:17:48;100233.44;;;10.55;100.00
11525;BME280;5819;49.648;8.330;2023-11-21T11:20:17;100233.69;;;10.49;100.00
11525;BME280;5819;49.648;8.330;2023-11-21T11:22:59;100231.63;;;10.37;100.00
11525;BME280;5819;49.648;8.330;2023-11-21T11:25:41;100235.78;;;10.41;100.00
11525;BME280;5819;49.648;8.330;2023-11-21T11:28:18;100235.59;;;10.45;100.00
11525;BME280;5819;49.648;8.330;2023-11-21T11:30:57;100232.25;;;10.62;100.00
11525;BME280;5819;49.648;8.330;2023-11-21T11:33:36;100232.19;;;10.43;100.00
11525;BME280;5819;49.648;8.330;2023-11-21T11:36:13;100231.28;;;10.44;100.00
11525;BME280;5819;49.648;8.330;2023-11-21T11:38:46;100228.50;;;10.49;100.00
11525;BME280;5819;49.648;8.330;2023-11-21T11:41:25;100223.31;;;10.67;100.00
11525;BME280;5819;49.648;8.330;2023-11-21T11:43:54;100225.09;;;10.67;100.00
11525;BME280;5819;49.648;8.330;2023-11-21T11:46:40;100222.09;;;10.56;100.00
11525;BME280;5819;49.648;8.330;2023-11-21T11:49:09;100223.81;;;10.57;100.00
11525;BME280;5819;49.648;8.330;2023-11-21T11:51:37;100233.81;;;10.66;100.00
11525;BME280;5819;49.648;8.330;2023-11-21T11:54:07;100232.59;;;10.73;100.00
11525;BME280;5819;49.648;8.330;2023-11-21T11:56:36;100227.41;;;10.73;100.00
11525;BME280;5819;49.648;8.330;2023-11-21T11:59:05;100223.69;;;10.97;100.00
11525;BME280;5819;49.648;8.330;2023-11-21T12:01:35;100218.47;;;10.97;100.00
11525;BME280;5819;49.648;8.330;2023-11-21T12:04:24;100224.13;;;11.07;100.00
11525;BME280;5819;49.648;8.330;2023-11-21T12:07:00;100230.50;;;11.00;100.00
11525;BME280;5819;49.648;8.330;2023-11-21T12:09:31;100234.16;;;10.96;100.00
11525;BME280;5819;49.648;8.330;2023-11-21T12:12:00;100234.03;;;10.99;100.00
11525;BME280;5819;49.648;8.330;2023-11-21T12:14:30;100247.03;;;10.80;100.00
11525;BME280;5819;49.648;8.330;2023-11-21T12:16:58;100250.56;;;10.79;100.00
11525;BME280;5819;49.648;8.330;2023-11-21T12:19:27;100246.47;;;10.73;100.00
11525;BME280;5819;49.648;8.330;2023-11-21T12:21:55;100238.50;;;10.76;100.00
11525;BME280;5819;49.648;8.330;2023-11-21T12:24:23;100247.97;;;10.79;100.00
11525;BME280;5819;49.648;8.330;2023-11-21T12:26:52;100248.28;;;10.71;100.00
11525;BME280;5819;49.648;8.330;2023-11-21T12:29:20;100254.63;;;10.66;100.00
11525;BME280;5819;49.648;8.330;2023-11-21T12:31:49;100254.63;;;10.66;100.00
11525;BME280;5819;49.648;8.330;2023-11-21T12:34:17;100253.06;;;10.62;100.00
11525;BME280;5819;49.648;8.330;2023-11-21T12:36:45;100247.06;;;10.60;100.00
11525;BME280;5819;49.648;8.330;2023-11-21T12:39:13;100251.38;;;10.61;100.00
11525;BME280;5819;49.648;8.330;2023-11-21T12:41:41;100248.22;;;10.73;100.00
11525;BME280;5819;49.648;8.330;2023-11-21T12:44:12;100258.63;;;10.73;100.00
11525;BME280;5819;49.648;8.330;2023-11-21T12:46:42;100264.63;;;10.75;100.00
11525;BME280;5819;49.648;8.330;2023-11-21T12:49:12;100263.88;;;10.71;100.00
11525;BME280;5819;49.648;8.330;2023-11-21T12:51:45;100260.53;;;10.88;100.00
11525;BME280;5819;49.648;8.330;2023-11-21T12:54:14;100268.28;;;10.71;100.00
11525;BME280;5819;49.648;8.330;2023-11-21T12:56:45;100271.53;;;10.56;100.00
11525;BME280;5819;49.648;8.330;2023-11-21T12:59:15;100275.34;;;10.47;100.00
11525;BME280;5819;49.648;8.330;2023-11-21T13:01:45;100277.75;;;10.52;100.00
11525;BME280;5819;49.648;8.330;2023-11-21T13:04:13;100280.56;;;10.47;100.00
11525;BME280;5819;49.648;8.330;2023-11-21T13:06:41;100284.66;;;10.53;100.00
11525;BME280;5819;49.648;8.330;2023-11-21T13:09:09;100287.47;;;10.48;100.00
11525;BME280;5819;49.648;8.330;2023-11-21T13:11:37;100283.88;;;10.71;100.00
11525;BME280;5819;49.648;8.330;2023-11-21T13:14:07;100285.28;;;10.78;100.00